HS Bizet — A8MI3 — position and weather

sailwx.info

Track history (hours):
 
Tides and Currents Weather Stations Pressure Air Temp Water Temp Dewpoint Dewpoint Depression Visibility Wind Speed Wind Dir Waves Ship Positions

HS Bizet

Last reported at 2015-Feb-01 12:33 UTC. Time now 2015-Feb-01 13:14 UTC.
Position N 37°43' W 122°19'.

Length 246 m; draft 8.9 m.

Type: Ship (hazmat cat A). MMSI: 636091349.

Date/timePositionNaut miles runAvg speedWind from/ knotsBaromVisibWave heightAir tempDewpointWater temp
2015-Feb-01 12:33N 37°43' W 122°19'0 0.0
2015-Feb-01 11:33N 37°43' W 122°19'0 0.0
2015-Feb-01 10:33N 37°43' W 122°19'0 0.0
2015-Feb-01 09:33N 37°43' W 122°19'0 0.0
2015-Feb-01 08:33N 37°43' W 122°19'0 0.2
2015-Feb-01 07:33N 37°42' W 122°19'0 0.0
2015-Feb-01 06:33N 37°42' W 122°19'0 0.0
2015-Feb-01 05:33N 37°42' W 122°19'0 0.0
2015-Feb-01 04:33N 37°42' W 122°19'0 0.0
2015-Feb-01 03:33N 37°42' W 122°19'0 0.0
2015-Feb-01 02:33N 37°42' W 122°19'0 0.1
2015-Feb-01 01:33N 37°42' W 122°19'0 0.2
2015-Feb-01 00:33N 37°43' W 122°19'0 0.0
2015-Jan-31 23:33N 37°43' W 122°19'0 0.0
2015-Jan-31 22:33N 37°43' W 122°19'0 0.0
2015-Jan-31 21:33N 37°43' W 122°19'0 0.0
2015-Jan-31 20:33N 37°43' W 122°19'0 0.0
2015-Jan-31 19:33N 37°43' W 122°19'0 0.1
2015-Jan-31 18:33N 37°43' W 122°19'0 0.2
2015-Jan-31 17:33N 37°42' W 122°19'0 0.0
2015-Jan-31 16:33N 37°42' W 122°19'0 0.0
2015-Jan-31 15:33N 37°42' W 122°19'0 0.0
2015-Jan-31 14:33N 37°42' W 122°19'0 0.0
2015-Jan-31 13:33N 37°42' W 122°19'0 0.1
2015-Jan-31 12:33N 37°42' W 122°19'0 0.2
2015-Jan-31 11:33N 37°43' W 122°19'0 0.0
2015-Jan-31 10:33N 37°43' W 122°19'0 0.0
2015-Jan-31 09:33N 37°43' W 122°19'0 0.0
2015-Jan-31 08:33N 37°43' W 122°19'0 0.1
2015-Jan-31 07:33N 37°43' W 122°19'0 0.2
2015-Jan-31 06:33N 37°42' W 122°19'0 0.1
2015-Jan-31 05:33N 37°42' W 122°19'0 0.0
2015-Jan-31 04:33N 37°42' W 122°19'0 0.0
2015-Jan-31 03:33N 37°42' W 122°19'0 0.0
2015-Jan-31 02:33N 37°42' W 122°19'0 0.0
2015-Jan-31 01:33N 37°42' W 122°19'3 3.5
2015-Jan-31 00:33N 37°45' W 122°21'10 9.8
2015-Jan-30 23:33N 37°47' W 122°33'10 9.9
2015-Jan-30 22:33N 37°42' W 122°44'1211.9
2015-Jan-30 21:33N 37°35' W 122°56'1413.8
2015-Jan-30 20:33N 37°26' W 123°09'1212.2
2015-Jan-30 19:33N 37°17' W 123°20'1413.5
2015-Jan-30 18:31N 37°07' W 123°32'9313.3
2015-Jan-30 11:30N 35°56' W 124°48'1313.1
2015-Jan-30 10:32N 35°46' W 124°58'1313.2
2015-Jan-30 09:33N 35°37' W 125°09'1413.5
2015-Jan-30 08:33N 35°27' W 125°20'1313.4
2015-Jan-30 07:33N 35°16' W 125°31'1413.6
2015-Jan-30 06:32N 35°06' W 125°42'1413.3
2015-Jan-30 05:28N 34°55' W 125°53'1313.8
2015-Jan-30 04:33N 34°46' W 126°04'11913.0
2015-Jan-29 19:26N 32°59' W 127°05'1213.4
2015-Jan-29 18:33N 32°48' W 127°11'7614.5
2015-Jan-29 13:19N 31°38' W 127°46'  
Track history (hours):
 
Tides and Currents Weather Stations Pressure Air Temp Water Temp Dewpoint Dewpoint Depression Visibility Wind Speed Wind Dir Waves Ship Positions

HS Bizet

Last reported at 2015-Feb-01 12:33 UTC. Time now 2015-Feb-01 13:14 UTC.
Position N 37°43' W 122°19'.

Length 246 m; draft 8.9 m.

Type: Ship (hazmat cat A). MMSI: 636091349.

Date/timePositionNaut miles runAvg speedWind from/ knotsBaromVisibWave heightAir tempDewpointWater temp
2015-Feb-01 12:33N 37°43' W 122°19'0 0.0
2015-Feb-01 11:33N 37°43' W 122°19'0 0.0
2015-Feb-01 10:33N 37°43' W 122°19'0 0.0
2015-Feb-01 09:33N 37°43' W 122°19'0 0.0
2015-Feb-01 08:33N 37°43' W 122°19'0 0.2
2015-Feb-01 07:33N 37°42' W 122°19'0 0.0
2015-Feb-01 06:33N 37°42' W 122°19'0 0.0
2015-Feb-01 05:33N 37°42' W 122°19'0 0.0
2015-Feb-01 04:33N 37°42' W 122°19'0 0.0
2015-Feb-01 03:33N 37°42' W 122°19'0 0.0
2015-Feb-01 02:33N 37°42' W 122°19'0 0.1
2015-Feb-01 01:33N 37°42' W 122°19'0 0.2
2015-Feb-01 00:33N 37°43' W 122°19'0 0.0
2015-Jan-31 23:33N 37°43' W 122°19'0 0.0
2015-Jan-31 22:33N 37°43' W 122°19'0 0.0
2015-Jan-31 21:33N 37°43' W 122°19'0 0.0
2015-Jan-31 20:33N 37°43' W 122°19'0 0.0
2015-Jan-31 19:33N 37°43' W 122°19'0 0.1
2015-Jan-31 18:33N 37°43' W 122°19'0 0.2
2015-Jan-31 17:33N 37°42' W 122°19'0 0.0
2015-Jan-31 16:33N 37°42' W 122°19'0 0.0
2015-Jan-31 15:33N 37°42' W 122°19'0 0.0
2015-Jan-31 14:33N 37°42' W 122°19'0 0.0
2015-Jan-31 13:33N 37°42' W 122°19'0 0.1
2015-Jan-31 12:33N 37°42' W 122°19'0 0.2
2015-Jan-31 11:33N 37°43' W 122°19'0 0.0
2015-Jan-31 10:33N 37°43' W 122°19'0 0.0
2015-Jan-31 09:33N 37°43' W 122°19'0 0.0
2015-Jan-31 08:33N 37°43' W 122°19'0 0.1
2015-Jan-31 07:33N 37°43' W 122°19'0 0.2
2015-Jan-31 06:33N 37°42' W 122°19'0 0.1
2015-Jan-31 05:33N 37°42' W 122°19'0 0.0
2015-Jan-31 04:33N 37°42' W 122°19'0 0.0
2015-Jan-31 03:33N 37°42' W 122°19'0 0.0
2015-Jan-31 02:33N 37°42' W 122°19'0 0.0
2015-Jan-31 01:33N 37°42' W 122°19'3 3.5
2015-Jan-31 00:33N 37°45' W 122°21'10 9.8
2015-Jan-30 23:33N 37°47' W 122°33'10 9.9
2015-Jan-30 22:33N 37°42' W 122°44'1211.9
2015-Jan-30 21:33N 37°35' W 122°56'1413.8
2015-Jan-30 20:33N 37°26' W 123°09'1212.2
2015-Jan-30 19:33N 37°17' W 123°20'1413.5
2015-Jan-30 18:31N 37°07' W 123°32'9313.3
2015-Jan-30 11:30N 35°56' W 124°48'1313.1
2015-Jan-30 10:32N 35°46' W 124°58'1313.2
2015-Jan-30 09:33N 35°37' W 125°09'1413.5
2015-Jan-30 08:33N 35°27' W 125°20'1313.4
2015-Jan-30 07:33N 35°16' W 125°31'1413.6
2015-Jan-30 06:32N 35°06' W 125°42'1413.3
2015-Jan-30 05:28N 34°55' W 125°53'1313.8
2015-Jan-30 04:33N 34°46' W 126°04'11913.0
2015-Jan-29 19:26N 32°59' W 127°05'1213.4
2015-Jan-29 18:33N 32°48' W 127°11'7614.5
2015-Jan-29 13:19N 31°38' W 127°46'  

Dump ship's entire track history